Current Conditions
Scattered
Clouds



Pressure
1003.92 (mb) - 29.65 (inHG)
Visibility

6.2 (miles) - 10.0 (km)
Temperature
21  °C
Temperature
14  °C
Dewpoint
64  %
 Humidity
Wind Speed
5  mph
4  kts
8  km/h
2.2  m/s
Wind Direction
N
45°
E
90°
135°
S
180°
225°
W
270°
315°
 280°

Due West
Airport Data
EGYM
RAF Marham
Metar :EGYM 152020Z AUTO 28004KT 9999 SCT120/// 21/14 Q1004
Mon 15th August 21:20 pm
Raw Metar Info
Raw METAR is the most common format in the world for the transmission of observational weather data. It is highly standardized through the International Civil Aviation Organization (ICAO), which allows it to be understood throughout most of the world.
API Info
Data Provided by
https://www.checkwx.com/weather/EGYM

Aviation Weather providing METAR, TAF, AIRMET, SIGMET and OUTLOOK Weather Reports
© Info
CSS/SVG/PHP scripts were developed by weather34 for use in the weather34 template © 2015-2022

Guide Info provided by Metar-Wikipedia